createdAt,value
2018-04-24T00:02:05.072Z,2.43
2018-04-24T00:04:31.376Z,2.13
2018-04-24T00:06:57.681Z,2.13
2018-04-24T00:09:23.993Z,2.60
2018-04-24T00:11:50.296Z,1.83
2018-04-24T00:14:16.607Z,2.73
2018-04-24T00:16:43.634Z,2.70
2018-04-24T00:19:09.905Z,2.37
2018-04-24T00:21:36.224Z,2.70
2018-04-24T00:24:02.556Z,2.70
2018-04-24T00:26:28.882Z,2.63
2018-04-24T00:28:55.180Z,2.70
2018-04-24T00:31:21.483Z,2.47
2018-04-24T00:33:47.799Z,2.57
2018-04-24T00:36:14.094Z,2.40
2018-04-24T00:38:41.131Z,2.40
2018-04-24T00:41:08.168Z,2.90
2018-04-24T00:43:34.578Z,2.53
2018-04-24T00:46:00.899Z,2.87
2018-04-24T00:48:27.215Z,3.03
2018-04-24T00:50:53.515Z,2.33
2018-04-24T00:53:32.684Z,2.77
2018-04-24T00:55:58.967Z,2.30
2018-04-24T00:58:26.016Z,2.37
2018-04-24T01:00:53.056Z,2.70
2018-04-24T01:03:19.356Z,2.67
2018-04-24T01:05:45.679Z,2.30
2018-04-24T01:08:12.001Z,2.83
2018-04-24T01:10:38.280Z,2.60
2018-04-24T01:13:04.574Z,2.70
2018-04-24T01:15:30.866Z,2.70
2018-04-24T01:17:57.157Z,2.83
2018-04-24T01:20:23.497Z,2.63
2018-04-24T01:22:50.164Z,2.43
2018-04-24T01:25:16.462Z,2.37
2018-04-24T01:27:42.742Z,2.73
2018-04-24T01:30:09.084Z,2.63
2018-04-24T01:32:35.396Z,3.17
2018-04-24T01:35:01.713Z,2.60
2018-04-24T01:37:28.752Z,2.50
2018-04-24T01:39:55.791Z,2.70
2018-04-24T01:42:22.871Z,2.57
2018-04-24T01:44:49.195Z,2.87
2018-04-24T01:47:15.631Z,2.67
2018-04-24T01:49:41.959Z,2.20
2018-04-24T01:52:08.991Z,2.70
2018-04-24T01:54:36.023Z,3.03
2018-04-24T01:57:02.401Z,2.57
2018-04-24T01:59:28.725Z,2.93
2018-04-24T02:01:55.005Z,2.57
2018-04-24T02:04:21.295Z,3.10
2018-04-24T02:06:47.628Z,3.07
2018-04-24T02:09:13.924Z,2.67
2018-04-24T02:11:40.972Z,2.60
2018-04-24T02:14:08.052Z,3.03
2018-04-24T02:16:34.351Z,3.10
2018-04-24T02:19:01.414Z,2.87
2018-04-24T02:21:27.709Z,3.03
2018-04-24T02:23:54.021Z,3.10
2018-04-24T02:26:20.326Z,2.37
2018-04-24T02:28:46.617Z,2.77
2018-04-24T02:31:13.691Z,2.47
2018-04-24T02:33:39.999Z,2.80
2018-04-24T02:36:06.295Z,3.17
2018-04-24T02:38:32.648Z,2.83
2018-04-24T02:40:58.955Z,3.03
2018-04-24T02:43:25.260Z,2.77
2018-04-24T02:45:51.571Z,3.00
2018-04-24T02:48:17.867Z,3.00
2018-04-24T02:50:44.951Z,3.17
2018-04-24T02:53:11.253Z,3.27
2018-04-24T02:55:38.319Z,3.03
2018-04-24T02:58:05.359Z,2.57
2018-04-24T03:00:32.405Z,2.33
2018-04-24T03:02:59.453Z,3.00
2018-04-24T03:05:26.510Z,3.27
2018-04-24T03:07:53.531Z,2.77
2018-04-24T03:10:19.844Z,3.37
2018-04-24T03:12:46.148Z,2.67
2018-04-24T03:15:12.427Z,3.03
2018-04-24T03:17:39.641Z,2.73
2018-04-24T03:20:05.955Z,3.20
2018-04-24T03:22:32.244Z,4.60
2018-04-24T03:24:58.536Z,4.23
2018-04-24T03:27:24.835Z,3.80
2018-04-24T03:29:51.136Z,3.63
2018-04-24T03:32:17.428Z,3.47
2018-04-24T03:34:43.746Z,3.03
2018-04-24T03:37:10.019Z,3.17
2018-04-24T03:39:36.388Z,3.20
2018-04-24T03:42:02.688Z,3.40
2018-04-24T03:44:29.060Z,3.17
2018-04-24T03:46:55.364Z,3.40
2018-04-24T03:49:22.411Z,3.27
2018-04-24T03:51:49.475Z,3.40
2018-04-24T03:54:16.154Z,3.40
2018-04-24T03:56:42.506Z,2.90
2018-04-24T03:59:08.889Z,3.07
2018-04-24T04:01:35.188Z,3.10
2018-04-24T04:04:02.265Z,4.47
2018-04-24T04:06:28.573Z,3.87
2018-04-24T04:08:55.624Z,3.47
2018-04-24T04:11:22.748Z,2.87
2018-04-24T04:13:49.047Z,3.50
2018-04-24T04:16:15.367Z,3.47
2018-04-24T04:18:53.825Z,2.83
2018-04-24T04:21:32.192Z,3.60
2018-04-24T04:24:10.535Z,3.37
2018-04-24T04:26:36.838Z,2.83
2018-04-24T04:29:03.983Z,2.97
2018-04-24T04:31:30.284Z,3.57
2018-04-24T04:33:57.354Z,3.20
2018-04-24T04:36:23.655Z,3.90
2018-04-24T04:38:50.684Z,2.90
2018-04-24T04:41:16.976Z,3.53
2018-04-24T04:43:43.267Z,3.23
2018-04-24T04:46:10.307Z,3.07
2018-04-24T04:48:36.634Z,3.60
2018-04-24T04:51:03.676Z,3.30
2018-04-24T04:53:29.981Z,2.87
2018-04-24T04:55:56.307Z,2.60
2018-04-24T04:58:23.337Z,3.33
2018-04-24T05:00:49.687Z,3.40
2018-04-24T05:03:16.018Z,3.40
2018-04-24T05:05:42.325Z,3.17
2018-04-24T05:08:09.535Z,3.63
2018-04-24T05:10:35.823Z,5.43
2018-04-24T05:13:02.169Z,5.43
2018-04-24T05:15:28.495Z,5.20
2018-04-24T05:17:54.807Z,3.17
2018-04-24T05:20:21.137Z,4.27
2018-04-24T05:22:47.435Z,3.13
2018-04-24T05:25:15.679Z,4.53
2018-04-24T05:27:42.004Z,4.53
2018-04-24T05:30:08.325Z,2.93
2018-04-24T05:32:34.641Z,3.17
2018-04-24T05:35:01.691Z,5.40
2018-04-24T05:37:27.983Z,2.80
2018-04-24T05:39:55.032Z,3.27
2018-04-24T05:42:22.051Z,3.03
2018-04-24T05:44:48.343Z,4.00
2018-04-24T05:47:14.635Z,4.93
2018-04-24T05:49:41.656Z,4.10
2018-04-24T05:52:07.952Z,4.00
2018-04-24T05:54:34.251Z,4.27
2018-04-24T05:57:01.325Z,3.63
2018-04-24T05:59:27.607Z,4.03
2018-04-24T06:01:53.875Z,2.70
2018-04-24T06:04:20.195Z,3.28
2018-04-24T06:06:46.475Z,2.83
2018-04-24T06:09:12.766Z,2.92
2018-04-24T06:11:39.163Z,3.03
2018-04-24T06:14:05.483Z,2.80
2018-04-24T06:16:31.864Z,2.83
2018-04-24T06:18:58.175Z,2.78
2018-04-24T06:21:25.678Z,2.58
2018-04-24T06:23:52.790Z,2.78
2018-04-24T06:26:19.109Z,2.92
2018-04-24T06:28:46.153Z,2.58
2018-04-24T06:31:13.188Z,2.90
2018-04-24T06:33:39.467Z,3.08
2018-04-24T06:36:05.829Z,3.50
2018-04-24T06:38:32.776Z,2.85
2018-04-24T06:40:59.072Z,3.17
2018-04-24T06:43:25.392Z,2.92
2018-04-24T06:45:51.671Z,2.90
2018-04-24T06:48:17.971Z,2.97
2018-04-24T06:50:44.277Z,3.53
2018-04-24T06:53:10.606Z,3.97
2018-04-24T06:55:36.888Z,3.37
2018-04-24T06:58:03.180Z,3.90
2018-04-24T07:00:29.642Z,3.53
2018-04-24T07:02:55.935Z,3.10
2018-04-24T07:05:22.224Z,3.20
2018-04-24T07:07:48.620Z,3.15
2018-04-24T07:10:14.922Z,3.03
2018-04-24T07:12:41.963Z,2.87
2018-04-24T07:15:09.012Z,2.67
2018-04-24T07:17:36.055Z,3.40
2018-04-24T07:20:03.153Z,2.70
2018-04-24T07:22:29.467Z,2.28
2018-04-24T07:24:55.744Z,2.25
2018-04-24T07:27:22.122Z,2.67
2018-04-24T07:29:48.463Z,2.42
2018-04-24T07:32:14.725Z,2.50
2018-04-24T07:34:41.123Z,2.45
2018-04-24T07:37:07.407Z,2.33
2018-04-24T07:39:33.768Z,2.55
2018-04-24T07:42:00.071Z,2.40
2018-04-24T07:44:26.375Z,2.10
2018-04-24T07:46:52.739Z,1.95
2018-04-24T07:49:19.010Z,2.33
2018-04-24T07:51:45.336Z,2.30
2018-04-24T07:54:11.893Z,2.22
2018-04-24T07:56:38.232Z,2.22
2018-04-24T07:59:04.635Z,2.30
2018-04-24T08:01:30.920Z,2.30
2018-04-24T08:03:57.431Z,2.45
2018-04-24T08:06:23.748Z,2.08
2018-04-24T08:08:50.115Z,2.03
2018-04-24T08:11:16.832Z,2.28
2018-04-24T08:13:43.148Z,2.53
2018-04-24T08:16:09.472Z,2.10
2018-04-24T08:18:35.759Z,2.47
2018-04-24T08:21:02.132Z,2.37
2018-04-24T08:23:28.650Z,2.58
2018-04-24T08:25:55.002Z,2.70
2018-04-24T08:28:21.303Z,2.50
2018-04-24T08:30:48.409Z,2.73
2018-04-24T08:33:14.831Z,2.83
2018-04-24T08:35:41.111Z,2.33
2018-04-24T08:38:08.214Z,2.73
2018-04-24T08:40:34.500Z,2.40
2018-04-24T08:43:01.523Z,2.67
2018-04-24T08:45:27.935Z,3.03
2018-04-24T08:47:54.403Z,3.00
2018-04-24T08:50:20.675Z,2.77
2018-04-24T08:52:46.951Z,2.30
2018-04-24T08:55:13.253Z,2.63
2018-04-24T08:57:39.653Z,2.20
2018-04-24T09:00:05.964Z,2.27
2018-04-24T09:02:32.980Z,2.13
2018-04-24T09:04:59.311Z,2.90
2018-04-24T09:07:25.627Z,2.40
2018-04-24T09:09:52.033Z,2.53
2018-04-24T09:12:18.383Z,2.63
2018-04-24T09:14:44.675Z,2.17
2018-04-24T09:17:10.995Z,2.33
2018-04-24T09:19:38.044Z,2.03
2018-04-24T09:22:05.101Z,2.07
2018-04-24T09:24:31.391Z,2.50
2018-04-24T09:26:57.745Z,2.60
2018-04-24T09:29:24.014Z,2.43
2018-04-24T09:31:50.328Z,2.47
2018-04-24T09:34:16.680Z,2.20
2018-04-24T09:36:42.978Z,2.20
2018-04-24T09:39:10.025Z,2.33
2018-04-24T09:41:37.112Z,2.40
2018-04-24T09:44:03.493Z,1.90
2018-04-24T09:46:29.772Z,2.50
2018-04-24T09:48:56.098Z,2.23
2018-04-24T09:51:22.463Z,2.57
2018-04-24T09:53:48.792Z,2.20
2018-04-24T09:56:15.092Z,2.00
2018-04-24T09:58:41.391Z,1.83
2018-04-24T10:01:08.436Z,2.10
2018-04-24T10:03:35.531Z,2.43
2018-04-24T10:06:01.868Z,2.00
2018-04-24T10:08:28.175Z,2.00
2018-04-24T10:10:54.472Z,1.77
2018-04-24T10:13:21.554Z,1.97
2018-04-24T10:15:47.856Z,1.93
2018-04-24T10:18:14.869Z,2.07
2018-04-24T10:20:41.195Z,1.80
2018-04-24T10:23:07.512Z,1.83
2018-04-24T10:25:33.819Z,1.97
2018-04-24T10:28:00.117Z,1.47
2018-04-24T10:30:27.167Z,1.90
2018-04-24T10:32:54.184Z,1.67
2018-04-24T10:35:20.487Z,1.77
2018-04-24T10:37:46.784Z,1.77
2018-04-24T10:40:13.840Z,2.00
2018-04-24T10:42:40.880Z,1.43
2018-04-24T10:45:07.204Z,1.80
2018-04-24T10:47:34.257Z,1.40
2018-04-24T10:50:01.310Z,1.77
2018-04-24T10:52:28.376Z,1.87
2018-04-24T10:54:54.668Z,1.97
2018-04-24T10:57:20.953Z,1.60
2018-04-24T10:59:47.259Z,2.00
2018-04-24T11:02:13.550Z,2.27
2018-04-24T11:04:39.835Z,2.00
2018-04-24T11:07:06.134Z,1.80
2018-04-24T11:09:33.173Z,1.70
2018-04-24T11:12:00.213Z,1.43
2018-04-24T11:14:26.516Z,1.77
2018-04-24T11:16:52.811Z,1.60
2018-04-24T11:19:19.118Z,1.57
2018-04-24T11:21:46.168Z,1.77
2018-04-24T11:24:13.224Z,2.30
2018-04-24T11:26:40.264Z,1.73
2018-04-24T11:29:07.288Z,1.70
2018-04-24T11:31:33.580Z,1.60
2018-04-24T11:33:59.880Z,1.83
2018-04-24T11:36:26.915Z,1.50
2018-04-24T11:38:53.947Z,2.10
2018-04-24T11:41:20.264Z,1.50
2018-04-24T11:43:46.579Z,1.80
2018-04-24T11:46:12.901Z,2.00
2018-04-24T11:48:39.228Z,1.87
2018-04-24T11:51:05.561Z,1.53
2018-04-24T11:53:31.862Z,1.83
2018-04-24T11:55:58.916Z,1.80
2018-04-24T11:58:25.229Z,1.53
2018-04-24T12:00:52.276Z,1.73
2018-04-24T12:03:19.326Z,2.03
2018-04-24T12:05:46.408Z,1.70
2018-04-24T12:08:12.707Z,1.70
2018-04-24T12:10:39.751Z,1.87
2018-04-24T12:13:06.784Z,2.10
2018-04-24T12:15:33.083Z,1.97
2018-04-24T12:17:59.400Z,2.23
2018-04-24T12:20:25.700Z,1.90
2018-04-24T12:22:52.780Z,1.60
2018-04-24T12:25:19.056Z,2.30
2018-04-24T12:27:45.340Z,2.00
2018-04-24T12:30:11.640Z,1.83
2018-04-24T12:32:38.668Z,1.90
2018-04-24T12:35:04.947Z,1.80
2018-04-24T12:37:31.275Z,1.77
2018-04-24T12:39:57.555Z,2.00
2018-04-24T12:42:23.859Z,1.57
2018-04-24T12:44:50.155Z,1.60
2018-04-24T12:47:16.480Z,1.70
2018-04-24T12:49:42.753Z,1.93
2018-04-24T12:52:09.040Z,1.83
2018-04-24T12:54:35.368Z,1.70
2018-04-24T12:57:01.684Z,1.77
2018-04-24T12:59:28.751Z,1.50
2018-04-24T13:01:55.053Z,1.70
2018-04-24T13:04:21.354Z,1.77
2018-04-24T13:06:47.659Z,1.73
2018-04-24T13:09:13.956Z,1.87
2018-04-24T13:11:40.975Z,1.73
2018-04-24T13:14:07.286Z,1.83
2018-04-24T13:16:33.597Z,1.80
2018-04-24T13:18:59.936Z,1.77
2018-04-24T13:21:26.258Z,1.47
2018-04-24T13:23:52.550Z,1.77
2018-04-24T13:26:19.600Z,1.50
2018-04-24T13:28:46.632Z,1.60
2018-04-24T13:31:12.975Z,1.50
2018-04-24T13:33:39.231Z,1.50
2018-04-24T13:36:05.540Z,1.60
2018-04-24T13:38:32.599Z,1.40
2018-04-24T13:40:59.617Z,1.53
2018-04-24T13:43:25.908Z,1.20
2018-04-24T13:45:52.200Z,1.60
2018-04-24T13:48:19.239Z,1.50
2018-04-24T13:50:45.524Z,1.50
2018-04-24T13:53:11.807Z,1.47
2018-04-24T13:55:38.831Z,1.60
2018-04-24T13:58:05.119Z,1.37
2018-04-24T14:00:31.412Z,1.30
2018-04-24T14:02:58.440Z,1.70
2018-04-24T14:05:24.749Z,1.47
2018-04-24T14:07:51.060Z,1.63
2018-04-24T14:10:17.394Z,1.77
2018-04-24T14:12:43.732Z,1.43
2018-04-24T14:15:10.028Z,1.40
2018-04-24T14:17:37.092Z,1.70
2018-04-24T14:20:03.426Z,1.73
2018-04-24T14:22:29.704Z,1.47
2018-04-24T14:24:56.004Z,1.83
2018-04-24T14:27:22.339Z,1.23
2018-04-24T14:29:48.660Z,1.60
2018-04-24T14:32:14.956Z,1.73
2018-04-24T14:34:42.051Z,1.70
2018-04-24T14:37:08.563Z,1.60
2018-04-24T14:39:34.791Z,1.43
2018-04-24T14:42:01.125Z,1.60
2018-04-24T14:44:27.484Z,2.10
2018-04-24T14:46:54.083Z,1.40
2018-04-24T14:49:20.769Z,1.40
2018-04-24T14:51:47.230Z,1.27
2018-04-24T14:54:13.565Z,1.83
2018-04-24T14:56:40.165Z,1.90
2018-04-24T14:59:06.726Z,1.53
2018-04-24T15:01:33.035Z,1.47
2018-04-24T15:03:59.442Z,1.50
2018-04-24T15:06:25.795Z,1.47
2018-04-24T15:08:52.148Z,1.47
2018-04-24T15:11:18.516Z,1.40
2018-04-24T15:13:45.075Z,1.50
2018-04-24T15:16:11.371Z,1.70
2018-04-24T15:18:38.400Z,1.40
2018-04-24T15:21:04.712Z,1.57
2018-04-24T15:23:31.008Z,1.50
2018-04-24T15:25:57.485Z,1.77
2018-04-24T15:28:23.924Z,1.50
2018-04-24T15:30:50.324Z,1.50
2018-04-24T15:33:16.616Z,1.75
2018-04-24T15:35:42.934Z,1.50
2018-04-24T15:38:10.591Z,1.60
2018-04-24T15:40:36.900Z,2.10
2018-04-24T15:43:03.396Z,2.28
2018-04-24T15:45:29.712Z,1.80
2018-04-24T15:47:56.113Z,1.67
2018-04-24T15:50:22.373Z,1.53
2018-04-24T15:52:48.665Z,1.40
2018-04-24T15:55:15.421Z,1.50
2018-04-24T15:57:42.459Z,1.67
2018-04-24T16:00:08.769Z,2.40
2018-04-24T16:02:35.066Z,1.80
2018-04-24T16:05:01.379Z,1.43
2018-04-24T16:07:29.064Z,1.60
2018-04-24T16:09:55.448Z,1.97
2018-04-24T16:12:21.831Z,1.57
2018-04-24T16:14:48.148Z,1.87
2018-04-24T16:17:14.483Z,1.90
2018-04-24T16:19:40.894Z,1.63
2018-04-24T16:22:07.093Z,2.10
2018-04-24T16:24:33.387Z,1.60
2018-04-24T16:26:59.680Z,1.50
2018-04-24T16:29:26.732Z,1.73
2018-04-24T16:31:53.748Z,1.70
2018-04-24T16:34:20.147Z,1.53
2018-04-24T16:36:46.434Z,1.40
2018-04-24T16:39:13.456Z,1.73
2018-04-24T16:41:39.772Z,1.47
2018-04-24T16:44:06.076Z,1.77
2018-04-24T16:46:32.487Z,1.90
2018-04-24T16:48:59.510Z,1.90
2018-04-24T16:51:25.900Z,1.60
2018-04-24T16:53:52.272Z,1.63
2018-04-24T16:56:18.581Z,1.60
2018-04-24T16:58:44.896Z,1.90
2018-04-24T17:01:11.223Z,1.50
2018-04-24T17:03:37.524Z,2.03
2018-04-24T17:06:04.649Z,1.43
2018-04-24T17:08:30.876Z,1.30
2018-04-24T17:10:57.261Z,1.63
2018-04-24T17:13:23.584Z,1.47
2018-04-24T17:15:49.927Z,1.63
2018-04-24T17:18:16.248Z,1.50
2018-04-24T17:20:42.636Z,1.67
2018-04-24T17:23:09.662Z,1.50
2018-04-24T17:25:35.970Z,1.60
2018-04-24T17:28:02.306Z,1.63
2018-04-24T17:30:28.648Z,1.47
2018-04-24T17:32:54.928Z,1.83
2018-04-24T17:35:21.312Z,1.60
2018-04-24T17:37:47.560Z,1.50
2018-04-24T17:40:13.879Z,1.60
2018-04-24T17:42:40.200Z,1.37
2018-04-24T17:45:06.622Z,1.40
2018-04-24T17:47:32.907Z,1.53
2018-04-24T17:49:59.991Z,1.40
2018-04-24T17:52:26.307Z,2.03
2018-04-24T17:54:52.802Z,2.10
2018-04-24T17:57:19.194Z,1.90
2018-04-24T17:59:45.512Z,1.90
2018-04-24T18:02:12.011Z,2.03
2018-04-24T18:04:38.388Z,2.13
2018-04-24T18:07:04.739Z,1.93
2018-04-24T18:09:31.138Z,1.53
2018-04-24T18:11:57.484Z,1.80
2018-04-24T18:14:23.821Z,1.70
2018-04-24T18:16:50.984Z,2.07
2018-04-24T18:19:17.295Z,1.90
2018-04-24T18:21:43.620Z,2.83
2018-04-24T18:24:09.927Z,3.57
2018-04-24T18:26:36.968Z,2.50
2018-04-24T18:29:04.016Z,2.23
2018-04-24T18:31:31.060Z,2.83
2018-04-24T18:33:58.115Z,2.00
2018-04-24T18:36:25.183Z,1.80
2018-04-24T18:38:51.472Z,2.80
2018-04-24T18:41:17.797Z,1.93
2018-04-24T18:43:44.145Z,2.23
2018-04-24T18:46:11.163Z,1.93
2018-04-24T18:48:37.465Z,1.87
2018-04-24T18:51:03.783Z,1.90
2018-04-24T18:53:30.068Z,1.90
2018-04-24T18:55:56.361Z,1.90
2018-04-24T18:58:22.705Z,1.90
2018-04-24T19:00:49.023Z,1.73
2018-04-24T19:03:15.351Z,1.50
2018-04-24T19:05:41.661Z,2.40
2018-04-24T19:08:07.999Z,2.00
2018-04-24T19:10:34.348Z,1.80
2018-04-24T19:13:00.650Z,1.73
2018-04-24T19:15:26.944Z,2.17
2018-04-24T19:17:53.236Z,2.67
2018-04-24T19:20:19.564Z,2.47
2018-04-24T19:22:45.971Z,2.40
2018-04-24T19:25:18.550Z,2.60
2018-04-24T19:27:44.915Z,2.57
2018-04-24T19:30:11.223Z,2.13
2018-04-24T19:32:37.600Z,1.90
2018-04-24T19:35:03.996Z,2.67
2018-04-24T19:37:31.973Z,1.87
2018-04-24T19:40:04.473Z,2.30
2018-04-24T19:42:30.868Z,2.47
2018-04-24T19:44:57.212Z,2.07
2018-04-24T19:47:23.505Z,2.20
2018-04-24T19:49:56.726Z,2.00
2018-04-24T19:52:23.143Z,2.10
2018-04-24T19:54:55.483Z,2.30
2018-04-24T19:57:21.857Z,2.27
2018-04-24T19:59:48.199Z,2.07
2018-04-24T20:02:15.012Z,2.00
2018-04-24T20:04:41.509Z,2.43
2018-04-24T20:07:08.653Z,2.10
2018-04-24T20:09:34.962Z,1.73
2018-04-24T20:12:01.414Z,3.00
2018-04-24T20:14:27.724Z,3.27
2018-04-24T20:16:54.058Z,3.00
2018-04-24T20:19:20.426Z,3.97
2018-04-24T20:21:46.773Z,3.23
2018-04-24T20:24:13.234Z,3.67
2018-04-24T20:26:39.532Z,3.63
2018-04-24T20:29:05.924Z,2.87
2018-04-24T20:31:32.344Z,2.57
2018-04-24T20:33:58.657Z,2.20
2018-04-24T20:36:25.723Z,2.40
2018-04-24T20:38:52.069Z,2.10
2018-04-24T20:41:18.394Z,2.03
2018-04-24T20:43:44.773Z,2.57
2018-04-24T20:46:11.864Z,3.20
2018-04-24T20:48:38.206Z,5.23
2018-04-24T20:51:04.507Z,5.53
2018-04-24T20:53:31.649Z,3.87
2018-04-24T20:55:57.852Z,3.10
2018-04-24T20:58:24.260Z,2.73
2018-04-24T21:00:50.646Z,2.70
2018-04-24T21:03:17.044Z,1.90
2018-04-24T21:05:43.420Z,2.30
2018-04-24T21:08:10.523Z,2.50
2018-04-24T21:10:36.930Z,2.33
2018-04-24T21:13:03.333Z,2.27
2018-04-24T21:15:29.588Z,2.20
2018-04-24T21:17:55.957Z,2.40
2018-04-24T21:20:22.350Z,2.10
2018-04-24T21:22:48.784Z,2.10
2018-04-24T21:25:15.104Z,2.43
2018-04-24T21:27:41.531Z,2.30
2018-04-24T21:30:07.855Z,2.27
2018-04-24T21:32:34.965Z,2.37
2018-04-24T21:35:01.995Z,2.73
2018-04-24T21:37:29.095Z,2.57
2018-04-24T21:39:56.208Z,2.27
2018-04-24T21:42:22.764Z,2.10
2018-04-24T21:44:49.567Z,2.47
2018-04-24T21:47:15.949Z,2.37
2018-04-24T21:49:43.553Z,2.40
2018-04-24T21:52:09.881Z,2.33
2018-04-24T21:54:36.181Z,2.47
2018-04-24T21:57:03.215Z,2.40
2018-04-24T21:59:30.247Z,2.90
2018-04-24T22:01:56.634Z,2.27
2018-04-24T22:04:22.972Z,2.50
2018-04-24T22:06:49.348Z,2.37
2018-04-24T22:09:15.952Z,2.40
2018-04-24T22:11:42.269Z,2.33
2018-04-24T22:14:09.488Z,2.37
2018-04-24T22:16:36.560Z,2.30
2018-04-24T22:19:03.141Z,2.33
2018-04-24T22:21:29.552Z,2.60
2018-04-24T22:23:56.080Z,2.50
2018-04-24T22:26:22.790Z,2.73
2018-04-24T22:28:49.333Z,2.40
2018-04-24T22:31:15.873Z,2.83
2018-04-24T22:33:42.319Z,2.43
2018-04-24T22:36:08.776Z,2.33
2018-04-24T22:38:35.104Z,2.60
2018-04-24T22:41:01.456Z,2.30
2018-04-24T22:43:27.766Z,2.67
2018-04-24T22:45:54.047Z,2.50
2018-04-24T22:48:21.105Z,2.30
2018-04-24T22:50:47.589Z,2.60
2018-04-24T22:53:13.864Z,2.27
2018-04-24T22:55:40.910Z,2.37
2018-04-24T22:58:07.952Z,2.37
2018-04-24T23:00:34.980Z,2.27
2018-04-24T23:03:01.288Z,2.30
2018-04-24T23:05:28.358Z,2.40
2018-04-24T23:07:54.710Z,2.77
2018-04-24T23:10:33.912Z,2.67
2018-04-24T23:13:12.228Z,2.43
2018-04-24T23:15:50.709Z,2.40
2018-04-24T23:18:29.220Z,2.40
2018-04-24T23:20:55.347Z,3.43
2018-04-24T23:23:21.682Z,2.77
2018-04-24T23:25:47.995Z,2.23
2018-04-24T23:28:14.334Z,3.60
2018-04-24T23:30:40.688Z,2.67
2018-04-24T23:33:07.068Z,2.40
2018-04-24T23:35:34.147Z,2.47
2018-04-24T23:38:00.485Z,2.83
2018-04-24T23:40:26.785Z,2.40
2018-04-24T23:42:53.835Z,2.80
2018-04-24T23:45:20.940Z,2.97
2018-04-24T23:47:47.258Z,2.53
2018-04-24T23:50:13.569Z,2.23
2018-04-24T23:52:40.164Z,2.60
2018-04-24T23:55:06.453Z,2.60
2018-04-24T23:57:32.806Z,2.40
2018-04-24T23:59:59.235Z,2.40
